Time;durP1;ratioP1;P1;durP2;ratioP2;P2;SDS_P1;SDS_P2;PMS_P1;PMS_P2;Temp;Humidity;BMP_temperature;BMP_pressure;BME280_temperature;BME280_humidity;BME280_pressure;Samples;Min_cycle;Max_cycle;Signal;HPM_P1;HPM_P2
2023/06/07 00:01:25;;;;;;;8.80;7.90;;;;;;;16.62;90.86;97939.73;106736;1277;22540;-76
2023/06/07 00:03:54;;;;;;;7.80;6.80;;;;;;;16.62;90.77;97939.42;107087;1277;22639;-77
2023/06/07 00:06:22;;;;;;;8.60;6.70;;;;;;;16.62;90.69;97938.48;107115;1277;22643;-77
2023/06/07 00:08:50;;;;;;;7.40;6.70;;;;;;;16.64;90.77;97935.45;106579;1277;22637;-77
2023/06/07 00:11:20;;;;;;;13.80;6.50;;;;;;;16.63;90.80;97933.93;106646;1277;24249;-77
2023/06/07 00:13:50;;;;;;;7.30;6.30;;;;;;;16.60;91.09;97930.66;106647;1277;22635;-76
2023/06/07 00:16:18;;;;;;;7.50;6.70;;;;;;;16.56;91.16;97929.21;106660;1277;24059;-76
2023/06/07 00:18:46;;;;;;;6.70;6.00;;;;;;;16.52;91.07;97932.42;106669;1277;22612;-76
2023/06/07 00:21:14;;;;;;;7.90;6.10;;;;;;;16.50;91.02;97928.33;106661;1277;23898;-76
2023/06/07 00:23:42;;;;;;;6.70;6.10;;;;;;;16.49;91.09;97925.98;106650;1277;22966;-76
2023/06/07 00:26:10;;;;;;;7.30;6.20;;;;;;;16.47;91.41;97926.88;106641;1277;22515;-77
2023/06/07 00:28:40;;;;;;;9.60;6.60;;;;;;;16.43;91.46;97923.94;106662;1277;22547;-76
2023/06/07 00:31:08;;;;;;;6.90;6.20;;;;;;;16.40;92.04;97922.91;106737;1277;24219;-77
2023/06/07 00:33:36;;;;;;;7.40;6.50;;;;;;;16.36;92.01;97922.30;107020;1277;26515;-77
2023/06/07 00:36:05;;;;;;;7.80;6.90;;;;;;;16.31;92.04;97923.52;106525;1277;24306;-77
2023/06/07 00:38:33;;;;;;;8.40;7.10;;;;;;;16.30;92.17;97918.67;107034;1277;26091;-77
2023/06/07 00:41:01;;;;;;;8.00;7.00;;;;;;;16.27;92.27;97915.30;106535;1277;24159;-76
2023/06/07 00:43:29;;;;;;;7.40;6.40;;;;;;;16.25;92.35;97919.66;106671;1277;23932;-76
2023/06/07 00:45:57;;;;;;;7.80;6.60;;;;;;;16.22;92.54;97916.08;106650;1277;22647;-77
2023/06/07 00:48:26;;;;;;;7.30;6.60;;;;;;;16.22;92.36;97918.10;107092;1277;22507;-77
2023/06/07 00:50:55;;;;;;;9.80;6.60;;;;;;;16.22;92.32;97912.97;106787;1277;25351;-77
2023/06/07 00:53:24;;;;;;;8.10;6.10;;;;;;;16.23;92.43;97912.09;107091;1277;22550;-77
2023/06/07 00:55:52;;;;;;;7.40;6.50;;;;;;;16.23;92.49;97909.96;106787;1277;22648;-76
2023/06/07 00:58:20;;;;;;;7.40;5.80;;;;;;;16.22;92.84;97911.11;106597;1277;22541;-77
2023/06/07 01:00:49;;;;;;;6.80;6.20;;;;;;;16.18;93.10;97912.30;106684;1277;22949;-75
2023/06/07 01:03:17;;;;;;;6.50;5.80;;;;;;;16.16;93.11;97909.02;106630;1277;22564;-76
2023/06/07 01:05:46;;;;;;;6.50;5.90;;;;;;;16.13;92.91;97910.10;106623;1277;22529;-76
2023/06/07 01:08:14;;;;;;;7.30;6.00;;;;;;;16.12;93.11;97909.52;106648;1267;22541;-76
2023/06/07 01:10:42;;;;;;;8.90;6.40;;;;;;;16.11;93.14;97906.67;106625;1277;22943;-76
2023/06/07 01:13:11;;;;;;;6.80;6.10;;;;;;;16.11;93.11;97904.27;106993;1277;22736;-76
2023/06/07 01:15:40;;;;;;;7.20;6.10;;;;;;;16.13;93.01;97910.55;106671;1267;22790;-76
2023/06/07 01:18:09;;;;;;;6.60;5.70;;;;;;;16.16;92.89;97908.55;106798;1277;23895;-76
2023/06/07 01:20:39;;;;;;;8.40;6.10;;;;;;;16.16;93.08;97905.45;106847;1277;25534;-77
2023/06/07 01:23:09;;;;;;;6.70;6.00;;;;;;;16.15;93.01;97903.89;106595;1277;25526;-77
2023/06/07 01:25:37;;;;;;;6.90;6.00;;;;;;;16.17;92.93;97906.48;107029;1277;22583;-77
2023/06/07 01:28:06;;;;;;;7.90;6.20;;;;;;;16.18;93.16;97906.70;106780;1277;22646;-77
2023/06/07 01:30:34;;;;;;;7.90;7.10;;;;;;;16.15;93.26;97902.70;106643;1253;23007;-78
2023/06/07 01:33:04;;;;;;;7.20;5.90;;;;;;;16.11;93.04;97902.01;106636;1277;22781;-78
2023/06/07 01:35:34;;;;;;;6.90;6.20;;;;;;;16.12;93.13;97901.20;106733;1277;22526;-78
2023/06/07 01:38:04;;;;;;;7.60;6.30;;;;;;;16.13;93.02;97903.65;106501;1277;22518;-77
2023/06/07 01:40:34;;;;;;;9.30;6.50;;;;;;;16.15;93.16;97900.91;107056;1277;23905;-77
2023/06/07 01:43:04;;;;;;;7.00;5.90;;;;;;;16.15;93.20;97899.05;107122;1277;22511;-78
2023/06/07 01:45:32;;;;;;;7.80;6.20;;;;;;;16.15;93.14;97902.48;107003;1277;22539;-78
2023/06/07 01:48:01;;;;;;;6.40;5.80;;;;;;;16.16;93.44;97901.57;106672;1277;22527;-78
2023/06/07 01:50:31;;;;;;;7.10;6.10;;;;;;;16.16;93.38;97904.36;107105;1277;22536;-77
2023/06/07 01:52:59;;;;;;;8.30;6.70;;;;;;;16.14;93.36;97900.09;107059;1256;22558;-78
2023/06/07 01:55:27;;;;;;;6.50;5.80;;;;;;;16.12;93.66;97898.48;106952;1277;22651;-78
2023/06/07 01:58:22;;;;;;;10.30;5.80;;;;;;;16.09;93.59;97896.74;106918;1277;24042;-78
2023/06/07 02:01:16;;;;;;;;;;;;;;;16.08;93.57;97898.59;106573;1277;25449;-78
2023/06/07 02:03:52;;;;;;;8.40;6.10;;;;;;;16.04;93.38;97898.42;106978;1277;24265;-78
2023/06/07 02:06:32;;;;;;;7.80;5.70;;;;;;;16.03;93.53;97901.12;106774;1277;22558;-78
2023/06/07 02:09:09;;;;;;;7.30;6.60;;;;;;;16.05;93.57;97895.73;106586;1277;22510;-78
2023/06/07 02:11:38;;;;;;;10.00;6.80;;;;;;;16.02;94.01;97901.61;106911;1277;25469;-78
2023/06/07 02:14:08;;;;;;;7.90;6.80;;;;;;;15.98;94.38;97892.77;106519;1277;22662;-78
2023/06/07 02:16:36;;;;;;;9.20;6.20;;;;;;;15.94;95.23;97894.20;106631;1260;22950;-77
2023/06/07 02:19:09;;;;;;;6.10;5.30;;;;;;;15.89;95.21;97891.17;106952;1277;22545;-78
2023/06/07 02:21:49;;;;;;;6.70;5.80;;;;;;;15.85;95.07;97890.25;106638;1277;22777;-78
2023/06/07 02:24:17;;;;;;;6.70;5.40;;;;;;;15.85;94.84;97892.88;107004;1277;24435;-78
2023/06/07 02:26:45;;;;;;;7.90;5.60;;;;;;;15.86;94.98;97890.75;106943;1277;22966;-78
2023/06/07 02:29:14;;;;;;;6.80;6.10;;;;;;;15.85;94.95;97890.07;106895;1277;22538;-78
2023/06/07 02:31:42;;;;;;;6.90;5.80;;;;;;;15.83;94.87;97888.28;106761;1277;25395;-77
2023/06/07 02:34:10;;;;;;;6.90;6.20;;;;;;;15.83;94.88;97886.66;106800;1277;26162;-77
2023/06/07 02:36:40;;;;;;;6.80;6.10;;;;;;;15.83;95.10;97888.77;106648;1277;22996;-78
2023/06/07 02:39:08;;;;;;;7.40;6.20;;;;;;;15.82;95.16;97888.03;107040;1277;24361;-78
2023/06/07 02:41:36;;;;;;;7.30;6.60;;;;;;;15.82;95.56;97889.09;106969;1277;23029;-77
2023/06/07 02:44:04;;;;;;;8.30;6.50;;;;;;;15.80;95.50;97890.14;106927;1277;22629;-77
2023/06/07 02:46:32;;;;;;;7.20;6.20;;;;;;;15.80;95.78;97888.66;106518;1277;22634;-77
2023/06/07 02:49:00;;;;;;;7.50;6.60;;;;;;;15.79;95.61;97889.25;106583;1277;22523;-77
2023/06/07 02:51:29;;;;;;;7.50;6.70;;;;;;;15.79;95.58;97892.63;106767;1277;22633;-77
2023/06/07 02:53:59;;;;;;;7.90;6.40;;;;;;;15.80;95.38;97893.94;107047;1277;22528;-77
2023/06/07 02:56:29;;;;;;;9.20;7.00;;;;;;;15.83;95.39;97893.88;106809;1277;22531;-77
2023/06/07 02:58:58;;;;;;;9.80;7.30;;;;;;;15.86;95.28;97893.60;106555;1277;24247;-76
2023/06/07 03:01:29;;;;;;;7.50;6.50;;;;;;;15.88;95.22;97895.31;106665;1277;22724;-75
2023/06/07 03:03:57;;;;;;;8.10;7.20;;;;;;;15.89;95.32;97893.41;106791;1277;22630;-75
2023/06/07 03:06:29;;;;;;;8.80;7.90;;;;;;;15.89;95.27;97894.98;106680;1277;22636;-76
2023/06/07 03:09:01;;;;;;;9.00;8.10;;;;;;;15.91;95.37;97898.13;106590;1277;24365;-76
2023/06/07 03:11:30;;;;;;;8.40;7.70;;;;;;;15.94;95.36;97898.36;106752;1277;22633;-76
2023/06/07 03:14:00;;;;;;;9.80;8.40;;;;;;;15.96;95.39;97897.06;106754;1266;22536;-76
2023/06/07 03:16:34;;;;;;;;;;;;;;;15.95;95.32;97894.88;106914;1277;22501;-76
2023/06/07 03:19:04;;;;;;;9.70;8.80;;;;;;;15.93;95.23;97894.79;106764;1277;22790;-76
2023/06/07 03:21:33;;;;;;;10.70;9.60;;;;;;;15.92;95.39;97892.50;106885;1277;24290;-76
2023/06/07 03:24:05;;;;;;;10.90;9.90;;;;;;;15.90;95.30;97897.87;106659;1277;22972;-76
2023/06/07 03:26:33;;;;;;;10.40;9.50;;;;;;;15.90;95.27;97896.63;106816;1277;24850;-78
2023/06/07 03:29:02;;;;;;;10.80;9.80;;;;;;;15.92;95.70;97900.58;106594;1277;24266;-77
2023/06/07 03:31:33;;;;;;;10.80;9.70;;;;;;;15.94;95.61;97900.85;106727;1277;22633;-77
2023/06/07 03:34:05;;;;;;;11.20;10.10;;;;;;;15.95;95.63;97897.97;106809;1277;22623;-77
2023/06/07 03:36:35;;;;;;;10.40;9.40;;;;;;;15.99;95.84;97900.90;106787;1277;24089;-77
2023/06/07 03:39:04;;;;;;;11.00;10.00;;;;;;;16.06;95.97;97897.10;106897;1277;23176;-77
2023/06/07 03:41:32;;;;;;;11.30;10.10;;;;;;;16.09;95.87;97902.96;106636;1277;25323;-77
2023/06/07 03:44:03;;;;;;;11.20;10.00;;;;;;;16.09;96.17;97903.44;106767;1277;22523;-77
2023/06/07 03:46:31;;;;;;;11.10;10.00;;;;;;;16.08;96.34;97901.36;106827;1277;22653;-77
2023/06/07 03:49:00;;;;;;;10.80;9.70;;;;;;;16.09;96.05;97902.96;106698;1277;22524;-77
2023/06/07 03:51:32;;;;;;;10.30;9.20;;;;;;;16.15;96.28;97906.96;106766;1277;25262;-77
2023/06/07 03:54:00;;;;;;;10.70;9.60;;;;;;;16.17;96.22;97902.17;107046;1277;22641;-76
2023/06/07 03:56:29;;;;;;;9.70;8.80;;;;;;;16.24;96.31;97910.16;106595;1277;22509;-76
2023/06/07 03:59:01;;;;;;;10.20;8.60;;;;;;;16.31;96.35;97909.08;106615;1277;22669;-76
2023/06/07 04:01:30;;;;;;;10.40;9.30;;;;;;;16.36;96.32;97907.55;107057;1277;22552;-77
2023/06/07 04:03:59;;;;;;;11.00;9.90;;;;;;;16.39;96.38;97907.80;106571;1277;22998;-76
2023/06/07 04:06:28;;;;;;;9.80;8.80;;;;;;;16.42;96.31;97910.46;106544;1277;25216;-77
2023/06/07 04:08:57;;;;;;;9.80;8.40;;;;;;;16.46;96.25;97911.92;106989;1277;22651;-76
2023/06/07 04:11:28;;;;;;;10.20;8.60;;;;;;;16.53;96.48;97914.33;106735;1277;22539;-76
2023/06/07 04:13:56;;;;;;;7.30;6.50;;;;;;;16.66;97.15;97910.80;107020;1277;22797;-75
2023/06/07 04:16:28;;;;;;;11.00;9.10;;;;;;;16.89;97.88;97907.40;106800;1277;25265;-78
2023/06/07 04:18:56;;;;;;;10.40;9.30;;;;;;;17.07;97.30;97905.64;107031;1277;22534;-77
2023/06/07 04:21:29;;;;;;;9.10;7.90;;;;;;;17.18;96.61;97911.89;106726;1277;25347;-79
2023/06/07 04:23:57;;;;;;;8.60;7.80;;;;;;;17.22;96.46;97909.91;106715;1277;22615;-75
2023/06/07 04:26:29;;;;;;;8.80;7.30;;;;;;;17.37;96.71;97907.78;106993;1277;22576;-77
2023/06/07 04:28:58;;;;;;;8.90;7.90;;;;;;;17.51;96.68;97909.78;107143;1277;26569;-75
2023/06/07 04:31:33;;;;;;;8.50;7.60;;;;;;;17.71;96.73;97907.88;107054;1277;24444;-76
2023/06/07 04:34:04;;;;;;;8.90;8.00;;;;;;;17.85;96.12;97906.90;106735;1267;23088;-74
2023/06/07 04:36:37;;;;;;;11.20;10.00;;;;;;;17.90;95.63;97908.29;106624;1274;22574;-75
2023/06/07 04:39:09;;;;;;;8.70;7.80;;;;;;;17.93;95.10;97910.48;106693;1277;22541;-75
2023/06/07 04:41:40;;;;;;;6.90;6.20;;;;;;;17.92;94.96;97913.23;106583;1277;22566;-75
2023/06/07 04:44:08;;;;;;;8.20;7.30;;;;;;;18.00;95.70;97912.45;106646;1277;22537;-75
2023/06/07 04:46:39;;;;;;;7.70;6.10;;;;;;;18.18;95.75;97909.89;106712;1277;22604;-77
2023/06/07 04:49:12;;;;;;;8.10;5.80;;;;;;;18.48;96.03;97909.05;107595;1277;22558;-75
2023/06/07 04:51:40;;;;;;;20.60;7.70;;;;;;;18.77;95.65;97910.36;106897;1277;22550;-76
2023/06/07 04:54:16;;;;;;;14.80;7.60;;;;;;;18.88;93.63;97912.89;107103;1277;23251;-76
2023/06/07 04:56:49;;;;;;;16.80;7.50;;;;;;;19.00;93.88;97920.98;107121;1277;22580;-75
2023/06/07 04:59:18;;;;;;;14.10;6.70;;;;;;;19.13;93.81;97919.50;106752;1277;22589;-78
2023/06/07 05:01:47;;;;;;;8.00;6.90;;;;;;;19.25;93.70;97919.08;107235;1277;22583;-77
2023/06/07 05:04:16;;;;;;;13.40;6.90;;;;;;;19.35;93.14;97918.98;106925;1277;25341;-77
2023/06/07 05:06:58;;;;;;;10.70;7.40;;;;;;;19.48;92.76;97917.95;107001;1277;24374;-77
2023/06/07 05:09:30;;;;;;;8.20;6.30;;;;;;;19.59;92.21;97915.84;107138;1277;22538;-78
2023/06/07 05:12:00;;;;;;;7.60;6.90;;;;;;;19.55;91.29;97913.88;106658;1277;22562;-79
2023/06/07 05:14:28;;;;;;;7.70;7.00;;;;;;;19.39;90.83;97912.14;106993;1277;25199;-80
2023/06/07 05:16:59;;;;;;;7.70;6.90;;;;;;;19.27;90.72;97910.77;106991;1277;22636;-81
2023/06/07 05:19:29;;;;;;;8.60;6.90;;;;;;;19.18;90.86;97914.39;107348;1277;24132;-77
2023/06/07 05:21:57;;;;;;;7.60;6.80;;;;;;;19.09;90.67;97912.85;106751;1277;22644;-79
2023/06/07 05:24:26;;;;;;;7.80;7.00;;;;;;;19.02;90.88;97912.70;106969;1277;22558;-80
2023/06/07 05:26:54;;;;;;;11.10;7.10;;;;;;;18.97;90.88;97913.11;106900;1277;24210;-80
2023/06/07 05:29:22;;;;;;;9.80;7.80;;;;;;;18.94;90.25;97911.79;107049;1265;22738;-80
2023/06/07 05:31:51;;;;;;;9.20;7.80;;;;;;;18.90;90.24;97914.81;106871;1277;22633;-80
2023/06/07 05:34:19;;;;;;;7.40;6.70;;;;;;;18.93;89.98;97913.33;106791;1277;22547;-79
2023/06/07 05:36:47;;;;;;;7.00;6.00;;;;;;;18.85;89.32;97914.77;106518;1277;22520;-80
2023/06/07 05:39:15;;;;;;;5.90;5.20;;;;;;;18.79;89.49;97915.56;106787;1277;22788;-80
2023/06/07 05:41:44;;;;;;;7.50;5.50;;;;;;;18.84;89.82;97916.09;106956;1277;22573;-80
2023/06/07 05:44:12;;;;;;;8.20;6.40;;;;;;;18.97;89.77;97919.05;107004;1277;24056;-80
2023/06/07 05:46:41;;;;;;;8.20;5.00;;;;;;;19.09;89.64;97916.45;106871;1277;22932;-80
2023/06/07 05:49:09;;;;;;;8.00;5.20;;;;;;;19.23;89.38;97914.83;106922;1277;24233;-80
2023/06/07 05:51:38;;;;;;;5.60;5.00;;;;;;;19.37;89.31;97912.63;106879;1277;160108;-80
2023/06/07 05:54:07;;;;;;;7.10;5.00;;;;;;;19.46;88.77;97915.02;107138;1277;24397;-80
2023/06/07 05:56:35;;;;;;;6.00;5.20;;;;;;;19.53;88.25;97918.23;106902;1277;22598;-79
2023/06/07 05:59:03;;;;;;;7.60;5.40;;;;;;;19.61;87.84;97919.79;107022;1277;26578;-80
2023/06/07 06:01:34;;;;;;;8.90;5.20;;;;;;;19.61;87.12;97921.13;106987;1277;25313;-79
2023/06/07 06:04:03;;;;;;;12.20;5.40;;;;;;;19.61;86.64;97923.00;107113;1277;22629;-79
2023/06/07 06:06:31;;;;;;;5.80;5.10;;;;;;;19.63;86.56;97924.22;107113;1277;22580;-79
2023/06/07 06:08:59;;;;;;;6.50;5.10;;;;;;;19.75;86.71;97929.97;106991;1277;25278;-79
2023/06/07 06:11:27;;;;;;;6.10;4.90;;;;;;;19.88;86.43;97929.30;107064;1277;24256;-79
2023/06/07 06:13:55;;;;;;;8.20;5.30;;;;;;;19.99;86.53;97925.92;106662;1277;24066;-79
2023/06/07 06:16:23;;;;;;;6.50;5.10;;;;;;;20.08;86.50;97927.98;107048;1277;22525;-79
2023/06/07 06:18:51;;;;;;;11.30;5.80;;;;;;;20.15;85.39;97925.70;107029;1277;24534;-78
2023/06/07 06:21:19;;;;;;;7.90;5.90;;;;;;;20.13;84.66;97929.81;106818;1277;26513;-79
2023/06/07 06:23:47;;;;;;;7.60;5.50;;;;;;;20.13;84.63;97929.73;107189;1277;22637;-79
2023/06/07 06:26:17;;;;;;;8.40;5.50;;;;;;;20.13;84.38;97930.60;107085;1277;22672;-79
2023/06/07 06:28:45;;;;;;;7.00;5.50;;;;;;;20.17;84.49;97930.59;107131;1277;22525;-79
2023/06/07 06:31:13;;;;;;;8.60;5.00;;;;;;;20.21;84.28;97928.63;107043;1277;22785;-79
2023/06/07 06:33:41;;;;;;;7.00;4.90;;;;;;;20.28;84.32;97930.16;106774;1277;22629;-78
2023/06/07 06:36:09;;;;;;;11.10;5.40;;;;;;;20.35;84.47;97932.58;107150;1277;22510;-79
2023/06/07 06:38:37;;;;;;;9.50;5.80;;;;;;;20.46;84.51;97929.08;107114;1277;22662;-79
2023/06/07 06:41:05;;;;;;;9.00;5.50;;;;;;;20.54;84.15;97932.10;107054;1277;24441;-80
2023/06/07 06:43:35;;;;;;;9.10;5.40;;;;;;;20.59;83.41;97932.73;107088;1277;22573;-79
2023/06/07 06:46:05;;;;;;;9.20;5.00;;;;;;;20.60;82.99;97931.73;106972;1277;25217;-79
2023/06/07 06:48:38;;;;;;;7.70;5.70;;;;;;;20.59;82.45;97934.30;106918;1277;22636;-79
2023/06/07 06:51:06;;;;;;;8.50;5.50;;;;;;;20.58;82.05;97933.17;107029;1277;22658;-79
2023/06/07 06:53:36;;;;;;;6.60;5.20;;;;;;;20.64;82.32;97933.36;107071;1266;24202;-79
2023/06/07 06:56:06;;;;;;;6.90;5.30;;;;;;;20.76;82.50;97932.48;107045;1277;23491;-79
2023/06/07 06:58:34;;;;;;;8.20;5.10;;;;;;;20.88;82.32;97934.48;107159;1277;25234;-79
2023/06/07 07:01:04;;;;;;;5.60;4.80;;;;;;;20.99;82.10;97936.85;107077;1277;25402;-79
2023/06/07 07:03:32;;;;;;;6.30;4.60;;;;;;;21.03;81.19;97934.41;107216;1277;25466;-79
2023/06/07 07:06:00;;;;;;;5.20;4.60;;;;;;;21.01;80.42;97932.56;106994;1277;25327;-79
2023/06/07 07:08:28;;;;;;;6.20;5.40;;;;;;;21.05;81.06;97928.48;107095;1277;22539;-79
2023/06/07 07:10:56;;;;;;;5.10;4.00;;;;;;;21.09;80.25;97930.83;107133;1277;22522;-79
2023/06/07 07:13:24;;;;;;;5.10;3.90;;;;;;;21.06;79.78;97933.75;107051;1277;22635;-79
2023/06/07 07:15:52;;;;;;;5.10;3.70;;;;;;;21.05;79.02;97932.63;107009;1277;24202;-78
2023/06/07 07:18:20;;;;;;;4.10;3.50;;;;;;;20.97;78.29;97934.45;106775;1277;24330;-78
2023/06/07 07:20:48;;;;;;;7.70;4.10;;;;;;;20.95;79.01;97934.91;107007;1277;22566;-79
2023/06/07 07:23:17;;;;;;;5.70;4.20;;;;;;;20.99;78.56;97939.58;107037;1277;23296;-78
2023/06/07 07:25:45;;;;;;;5.40;3.60;;;;;;;21.05;78.50;97940.23;107028;1277;22889;-80
2023/06/07 07:28:13;;;;;;;5.60;3.60;;;;;;;21.07;78.36;97934.08;107036;1277;22671;-79
2023/06/07 07:30:41;;;;;;;4.70;3.60;;;;;;;21.19;78.39;97933.95;107036;1277;25517;-79
2023/06/07 07:33:09;;;;;;;4.10;3.10;;;;;;;21.26;77.56;97933.90;107014;1277;22775;-79
2023/06/07 07:35:38;;;;;;;4.10;3.70;;;;;;;21.21;75.43;97935.39;107009;1277;25230;-80
2023/06/07 07:38:06;;;;;;;5.00;3.70;;;;;;;21.14;76.02;97939.27;107045;1277;22796;-80
2023/06/07 07:40:34;;;;;;;4.60;3.40;;;;;;;21.21;76.47;97939.94;107003;1277;25274;-79
2023/06/07 07:43:02;;;;;;;6.60;4.00;;;;;;;21.28;75.50;97937.39;106996;1277;22673;-79
2023/06/07 07:45:30;;;;;;;6.40;4.00;;;;;;;21.30;75.44;97936.39;107067;1277;22643;-79
2023/06/07 07:47:58;;;;;;;4.80;3.60;;;;;;;21.33;75.57;97935.50;107024;1277;26523;-79
2023/06/07 07:50:27;;;;;;;4.20;3.70;;;;;;;21.43;75.45;97936.38;107009;1277;23949;-79
2023/06/07 07:52:56;;;;;;;5.60;3.80;;;;;;;21.55;75.75;97932.70;106999;1277;24181;-80
2023/06/07 07:55:24;;;;;;;5.20;4.20;;;;;;;21.72;74.99;97933.80;107087;1277;22676;-80
2023/06/07 07:57:53;;;;;;;5.00;4.10;;;;;;;21.85;74.28;97927.80;106854;1277;25538;-79
2023/06/07 08:00:21;;;;;;;5.00;3.90;;;;;;;22.00;74.61;97929.85;107044;1277;22545;-80
2023/06/07 08:02:50;;;;;;;6.70;3.90;;;;;;;22.17;73.86;97930.70;107095;1277;22545;-80
2023/06/07 08:05:18;;;;;;;4.70;3.80;;;;;;;22.29;73.02;97936.10;107188;1277;22528;-80
2023/06/07 08:07:46;;;;;;;4.90;3.60;;;;;;;22.39;73.55;97936.77;107075;1277;25245;-80
2023/06/07 08:10:14;;;;;;;5.80;3.70;;;;;;;22.51;70.43;97935.70;107002;1277;22995;-80
2023/06/07 08:12:42;;;;;;;4.60;3.40;;;;;;;22.64;70.37;97932.07;106766;1277;26787;-79
2023/06/07 08:15:10;;;;;;;5.50;3.60;;;;;;;22.75;69.78;97937.27;107038;1277;25390;-78
2023/06/07 08:17:39;;;;;;;6.20;3.80;;;;;;;22.82;70.80;97941.58;106730;1277;25461;-80
2023/06/07 08:20:08;;;;;;;5.10;3.40;;;;;;;22.92;71.17;97942.54;107108;1277;24209;-78
2023/06/07 08:22:39;;;;;;;4.90;3.70;;;;;;;23.05;71.00;97946.73;107062;1277;22532;-78
2023/06/07 08:25:09;;;;;;;6.00;3.90;;;;;;;23.19;70.34;97942.77;107037;1277;22631;-79
2023/06/07 08:27:37;;;;;;;7.20;3.80;;;;;;;23.26;69.03;97943.92;107073;1277;22573;-79
2023/06/07 08:30:07;;;;;;;6.40;3.90;;;;;;;23.26;69.21;97940.70;106985;1277;22526;-79
2023/06/07 08:32:35;;;;;;;3.90;3.30;;;;;;;23.32;67.62;97939.35;106996;1277;22861;-79
2023/06/07 08:35:04;;;;;;;4.90;3.60;;;;;;;23.34;67.11;97938.88;107048;1277;25585;-78
2023/06/07 08:37:32;;;;;;;5.10;3.50;;;;;;;23.30;66.06;97939.71;107024;1277;22634;-78
2023/06/07 08:40:00;;;;;;;5.00;3.10;;;;;;;23.26;66.91;97944.32;106776;1277;22525;-78
2023/06/07 08:42:28;;;;;;;5.90;3.60;;;;;;;23.34;67.08;97944.77;107169;1277;26519;-78
2023/06/07 08:44:56;;;;;;;6.20;3.60;;;;;;;23.38;66.68;97940.95;106769;1277;25499;-78
2023/06/07 08:47:27;;;;;;;4.90;3.90;;;;;;;23.45;65.85;97942.17;106701;1277;22642;-79
2023/06/07 08:49:57;;;;;;;4.00;3.60;;;;;;;23.48;65.38;97944.16;107041;1277;25468;-79
2023/06/07 08:52:25;;;;;;;5.90;3.60;;;;;;;23.50;65.56;97940.71;106909;1277;22591;-79
2023/06/07 08:54:58;;;;;;;4.40;3.80;;;;;;;23.54;66.23;97944.20;106695;1277;22569;-79
2023/06/07 08:57:29;;;;;;;4.40;3.40;;;;;;;23.56;65.43;97945.31;106983;1277;23937;-79
2023/06/07 08:59:59;;;;;;;3.80;3.50;;;;;;;23.50;64.99;97945.03;106915;1277;22545;-79
2023/06/07 09:02:28;;;;;;;5.00;3.70;;;;;;;23.46;64.01;97938.97;107079;1277;24292;-79
2023/06/07 09:04:56;;;;;;;5.00;3.60;;;;;;;23.29;63.04;97935.85;106985;1277;22573;-79
2023/06/07 09:07:25;;;;;;;5.10;4.10;;;;;;;23.24;64.99;97937.63;107000;1277;22522;-79
2023/06/07 09:09:53;;;;;;;5.30;4.60;;;;;;;23.39;64.10;97939.62;106887;1277;22615;-79
2023/06/07 09:12:22;;;;;;;4.10;3.70;;;;;;;23.41;63.89;97942.77;107034;1277;22573;-80
2023/06/07 09:14:51;;;;;;;4.70;3.40;;;;;;;23.37;62.97;97940.86;106988;1277;22552;-79
2023/06/07 09:17:19;;;;;;;4.80;3.00;;;;;;;23.32;62.73;97944.90;107108;1277;22778;-79
2023/06/07 09:19:47;;;;;;;3.10;2.80;;;;;;;23.32;63.20;97942.25;107010;1277;22651;-79
2023/06/07 09:22:22;;;;;;;3.90;3.00;;;;;;;23.41;63.31;97936.17;107006;1277;22640;-79
2023/06/07 09:24:50;;;;;;;4.00;2.90;;;;;;;23.53;63.03;97944.66;107147;1277;22633;-79
2023/06/07 09:27:29;;;;;;;4.40;3.10;;;;;;;23.67;63.31;97939.33;107075;1277;24315;-79
2023/06/07 09:30:05;;;;;;;2.90;2.60;;;;;;;23.81;63.18;97945.08;106681;1277;22531;-79
2023/06/07 09:32:37;;;;;;;4.70;2.90;;;;;;;23.95;63.31;97944.69;107099;1277;22518;-79
2023/06/07 09:35:18;;;;;;;3.50;2.70;;;;;;;24.10;63.23;97940.89;107168;1277;24228;-79
2023/06/07 09:37:51;;;;;;;3.70;2.60;;;;;;;24.16;62.40;97935.56;107108;1277;22992;-79
2023/06/07 09:40:19;;;;;;;2.60;2.30;;;;;;;24.22;62.12;97940.23;107047;1277;22572;-79
2023/06/07 09:42:58;;;;;;;3.70;2.70;;;;;;;24.32;62.22;97937.58;107000;1277;22541;-79
2023/06/07 09:45:28;;;;;;;3.30;2.40;;;;;;;24.37;61.92;97936.41;106971;1277;25321;-79
2023/06/07 09:48:09;;;;;;;3.90;2.50;;;;;;;24.43;61.85;97938.90;107024;1277;23898;-79
2023/06/07 09:50:37;;;;;;;3.40;2.60;;;;;;;24.45;61.77;97941.35;107039;1277;22553;-79
2023/06/07 09:53:05;;;;;;;3.40;2.60;;;;;;;24.41;61.23;97938.02;106991;1277;24529;-79
2023/06/07 09:55:33;;;;;;;3.30;2.90;;;;;;;24.37;60.82;97930.98;106974;1277;22830;-79
2023/06/07 09:58:18;;;;;;;3.00;2.40;;;;;;;24.29;60.57;97929.88;106632;1277;22601;-79
2023/06/07 10:00:47;;;;;;;4.70;2.30;;;;;;;24.30;60.50;97931.84;106840;1278;23909;-79
2023/06/07 10:03:16;;;;;;;5.00;2.80;;;;;;;24.38;60.56;97926.42;106803;1277;22618;-79
2023/06/07 10:05:44;;;;;;;3.50;2.70;;;;;;;24.53;59.95;97924.05;106654;1277;24564;-79
2023/06/07 10:08:12;;;;;;;3.60;2.70;;;;;;;24.58;59.69;97924.13;106969;1277;22570;-79
2023/06/07 10:10:43;;;;;;;3.60;2.40;;;;;;;24.65;59.43;97922.33;106946;1277;22653;-78
2023/06/07 10:13:12;;;;;;;2.90;2.60;;;;;;;24.69;59.16;97918.01;106578;1277;25556;-78
2023/06/07 10:15:44;;;;;;;2.30;2.10;;;;;;;24.85;59.09;97916.30;106530;1278;24182;-79
2023/06/07 10:18:24;;;;;;;2.80;2.10;;;;;;;25.04;58.10;97917.80;107193;1277;22659;-78
2023/06/07 10:20:57;;;;;;;3.60;2.00;;;;;;;25.38;58.25;97915.26;107052;1277;24246;-78
2023/06/07 10:23:55;;;;;;;3.20;2.20;;;;;;;25.72;58.05;97908.73;107006;1277;22535;-78
2023/06/07 10:26:57;;;;;;;2.90;2.20;;;;;;;25.90;56.27;97909.86;107003;1277;22625;-78
2023/06/07 10:29:37;;;;;;;2.80;2.10;;;;;;;25.82;54.66;97908.30;106996;1277;24475;-78
2023/06/07 10:32:20;;;;;;;2.60;2.40;;;;;;;25.66;54.28;97905.02;107063;1277;22528;-79
2023/06/07 10:34:52;;;;;;;2.50;2.10;;;;;;;25.54;54.45;97904.83;106959;1274;22684;-78
2023/06/07 10:37:21;;;;;;;4.20;2.20;;;;;;;25.44;54.08;97908.08;106989;1277;22829;-78
2023/06/07 10:39:49;;;;;;;3.40;2.50;;;;;;;25.32;54.83;97905.66;106654;1277;23880;-78
2023/06/07 10:42:17;;;;;;;2.90;2.50;;;;;;;25.27;54.99;97904.56;106909;1277;22540;-80
2023/06/07 10:44:46;;;;;;;2.80;2.30;;;;;;;25.23;55.22;97904.88;106936;1277;22544;-80
2023/06/07 10:47:27;;;;;;;2.80;2.20;;;;;;;25.27;54.37;97899.05;106974;1277;22620;-79
2023/06/07 10:49:56;;;;;;;2.90;2.50;;;;;;;25.12;54.08;97899.45;107002;1277;22559;-79
2023/06/07 10:52:26;;;;;;;3.80;2.70;;;;;;;25.03;54.03;97901.73;106985;1276;24212;-79
2023/06/07 10:54:54;;;;;;;4.80;3.20;;;;;;;24.90;54.20;97899.44;106986;1277;25412;-78
2023/06/07 10:57:37;;;;;;;4.60;2.70;;;;;;;24.70;54.47;97896.44;107007;1277;25351;-78
2023/06/07 11:00:30;;;;;;;3.70;2.90;;;;;;;24.46;55.06;97900.66;106973;1278;23168;-78
2023/06/07 11:03:04;;;;;;;4.10;2.70;;;;;;;24.39;55.68;97898.34;106865;1277;22525;-78
2023/06/07 11:05:52;;;;;;;5.00;3.00;;;;;;;24.59;55.63;97893.76;107055;1277;23411;-78
2023/06/07 11:08:26;;;;;;;4.80;3.00;;;;;;;24.82;54.87;97893.45;107013;1277;25373;-78
2023/06/07 11:10:58;;;;;;;;;;;;;;;24.97;55.04;97896.68;106990;1277;22527;-78
2023/06/07 11:13:38;;;;;;;4.10;3.20;;;;;;;25.21;54.99;97896.22;106947;1277;22636;-78
2023/06/07 11:16:25;;;;;;;3.60;2.90;;;;;;;25.36;54.57;97896.91;106928;1277;22532;-78
2023/06/07 11:18:55;;;;;;;3.40;2.70;;;;;;;25.45;54.05;97901.47;106872;1278;23398;-79
2023/06/07 11:21:27;;;;;;;4.60;2.30;;;;;;;25.46;53.11;97903.50;106989;1277;25368;-79
2023/06/07 11:24:14;;;;;;;3.10;2.50;;;;;;;25.46;53.68;97901.37;106992;1277;22523;-79
2023/06/07 11:26:43;;;;;;;3.10;2.80;;;;;;;25.59;52.93;97902.13;107005;1277;23424;-78
2023/06/07 11:29:11;;;;;;;3.10;2.50;;;;;;;25.82;53.56;97897.66;107016;1277;25576;-79
2023/06/07 11:31:39;;;;;;;4.20;2.20;;;;;;;26.00;53.00;97900.36;106988;1277;22534;-78
2023/06/07 11:34:12;;;;;;;3.00;2.10;;;;;;;26.09;52.72;97896.77;107077;1277;23960;-79
2023/06/07 11:36:41;;;;;;;3.00;2.10;;;;;;;26.19;52.21;97894.12;106879;1277;25427;-79
2023/06/07 11:39:09;;;;;;;2.90;2.60;;;;;;;26.51;51.87;97887.70;107007;1277;24211;-79